createdAt,value
2023-08-07T00:01:18.572Z,17.62
2023-08-07T00:04:20.694Z,17.71
2023-08-07T00:07:22.832Z,17.38
2023-08-07T00:10:25.714Z,17.43
2023-08-07T00:13:27.906Z,17.41
2023-08-07T00:16:30.056Z,17.92
2023-08-07T00:19:32.166Z,17.67
2023-08-07T00:22:34.333Z,17.51
2023-08-07T00:25:36.428Z,17.99
2023-08-07T00:28:38.579Z,17.72
2023-08-07T00:31:40.809Z,17.73
2023-08-07T00:34:42.974Z,17.77
2023-08-07T00:37:45.362Z,18.16
2023-08-07T00:40:47.588Z,18.11
2023-08-07T00:43:49.781Z,17.74
2023-08-07T00:46:52.750Z,18.22
2023-08-07T00:49:54.821Z,18.00
2023-08-07T00:52:57.045Z,18.35
2023-08-07T00:55:59.335Z,18.03
2023-08-07T00:59:02.065Z,17.87
2023-08-07T01:02:04.595Z,17.44
2023-08-07T01:05:06.840Z,18.21
2023-08-07T01:08:09.250Z,17.92
2023-08-07T01:11:23.658Z,17.84
2023-08-07T01:14:46.082Z,17.69
2023-08-07T01:17:49.102Z,18.03
2023-08-07T01:20:51.264Z,18.06
2023-08-07T01:23:53.315Z,17.83
2023-08-07T01:26:57.106Z,17.67
2023-08-07T01:30:10.911Z,18.20
2023-08-07T01:33:40.707Z,18.16
2023-08-07T01:36:43.198Z,17.77
2023-08-07T01:39:46.196Z,17.71
2023-08-07T01:42:48.568Z,17.54
2023-08-07T01:45:50.670Z,17.75
2023-08-07T01:48:52.756Z,17.64
2023-08-07T01:51:54.853Z,18.00
2023-08-07T01:54:57.109Z,18.41
2023-08-07T01:57:59.300Z,17.28
2023-08-07T02:01:01.611Z,17.70
2023-08-07T02:04:03.902Z,17.24
2023-08-07T02:07:06.119Z,17.23
2023-08-07T02:10:08.955Z,17.20
2023-08-07T02:13:11.083Z,17.13
2023-08-07T02:16:15.765Z,16.98
2023-08-07T02:19:18.008Z,17.13
2023-08-07T02:22:20.556Z,16.89
2023-08-07T02:25:22.728Z,17.41
2023-08-07T02:28:24.928Z,18.04
2023-08-07T02:31:27.206Z,17.49
2023-08-07T02:34:29.962Z,17.50
2023-08-07T02:37:32.048Z,17.73
2023-08-07T02:40:34.254Z,16.85
2023-08-07T02:43:36.592Z,17.23
2023-08-07T02:46:38.830Z,17.46
2023-08-07T02:49:41.079Z,17.65
2023-08-07T02:52:45.752Z,17.97
2023-08-07T02:55:48.171Z,17.64
2023-08-07T02:58:50.314Z,17.33
2023-08-07T03:01:52.529Z,17.33
2023-08-07T03:04:54.944Z,17.40
2023-08-07T03:07:57.124Z,17.36
2023-08-07T03:10:59.405Z,17.55
2023-08-07T03:14:01.709Z,16.61
2023-08-07T03:17:03.977Z,16.95
2023-08-07T03:20:06.637Z,17.26
2023-08-07T03:23:08.730Z,16.53
2023-08-07T03:26:19.047Z,16.71
2023-08-07T03:29:22.106Z,17.17
2023-08-07T03:32:24.468Z,16.78
2023-08-07T03:35:26.632Z,16.76
2023-08-07T03:38:28.778Z,16.80
2023-08-07T03:41:31.008Z,16.64
2023-08-07T03:44:34.377Z,16.53
2023-08-07T03:47:36.701Z,16.80
2023-08-07T03:50:38.866Z,16.69
2023-08-07T03:53:41.208Z,16.48
2023-08-07T03:56:43.341Z,16.70
2023-08-07T03:59:45.413Z,16.55
2023-08-07T04:02:47.656Z,16.27
2023-08-07T04:05:53.535Z,16.43
2023-08-07T04:08:55.804Z,16.42
2023-08-07T04:11:57.904Z,16.62
2023-08-07T04:15:00.068Z,16.14
2023-08-07T04:18:02.306Z,16.19
2023-08-07T04:21:04.891Z,16.78
2023-08-07T04:24:11.577Z,16.54
2023-08-07T04:27:13.862Z,16.53
2023-08-07T04:30:16.058Z,16.94
2023-08-07T04:33:18.422Z,16.59
2023-08-07T04:36:22.226Z,17.16
2023-08-07T04:39:24.319Z,17.28
2023-08-07T04:42:26.412Z,17.40
2023-08-07T04:45:28.583Z,17.16
2023-08-07T04:48:30.731Z,17.32
2023-08-07T04:51:34.925Z,17.58
2023-08-07T04:54:37.163Z,17.74
2023-08-07T04:57:39.264Z,17.51
2023-08-07T05:00:41.583Z,18.46
2023-08-07T05:03:43.856Z,18.29
2023-08-07T05:06:46.363Z,18.61
2023-08-07T05:09:50.804Z,18.48
2023-08-07T05:12:58.775Z,19.08
2023-08-07T05:16:01.209Z,19.13
2023-08-07T05:19:03.472Z,19.76
2023-08-07T05:22:05.665Z,20.35
2023-08-07T05:25:08.137Z,19.59
2023-08-07T05:28:10.316Z,20.38
2023-08-07T05:31:12.490Z,19.48
2023-08-07T05:34:14.772Z,20.54
2023-08-07T05:37:16.927Z,20.04
2023-08-07T05:40:19.388Z,20.33
2023-08-07T05:43:21.672Z,21.06
2023-08-07T05:46:23.840Z,20.85
2023-08-07T05:49:26.720Z,19.88
2023-08-07T05:52:29.082Z,18.97
2023-08-07T05:55:33.723Z,19.08
2023-08-07T05:58:36.276Z,19.12
2023-08-07T06:01:38.687Z,18.84
2023-08-07T06:04:42.152Z,18.79
2023-08-07T06:07:44.530Z,18.52
2023-08-07T06:10:46.794Z,18.80
2023-08-07T06:13:50.146Z,18.95
2023-08-07T06:16:53.222Z,18.85
2023-08-07T06:19:55.340Z,19.36
2023-08-07T06:22:57.560Z,19.77
2023-08-07T06:25:59.947Z,20.04
2023-08-07T06:29:02.236Z,19.64
2023-08-07T06:32:07.677Z,19.82
2023-08-07T06:35:10.383Z,20.06
2023-08-07T06:38:15.484Z,19.83
2023-08-07T06:41:17.793Z,19.17
2023-08-07T06:44:19.937Z,19.40
2023-08-07T06:47:22.135Z,19.23
2023-08-07T06:50:25.428Z,18.48
2023-08-07T06:53:27.646Z,18.98
2023-08-07T06:56:30.638Z,18.67
2023-08-07T06:59:33.136Z,18.47
2023-08-07T07:02:37.466Z,19.28
2023-08-07T07:05:40.148Z,19.04
2023-08-07T07:08:42.579Z,19.65
2023-08-07T07:11:45.054Z,19.10
2023-08-07T07:14:47.202Z,18.84
2023-08-07T07:17:49.558Z,19.37
2023-08-07T07:21:01.746Z,19.05
2023-08-07T07:24:04.315Z,19.44
2023-08-07T07:27:06.981Z,19.39
2023-08-07T07:30:09.588Z,19.43
2023-08-07T07:33:12.115Z,19.77
2023-08-07T07:36:18.986Z,20.15
2023-08-07T07:39:22.085Z,20.47
2023-08-07T07:42:24.271Z,19.74
2023-08-07T07:45:26.447Z,20.45
2023-08-07T07:48:31.084Z,20.03
2023-08-07T07:51:33.358Z,20.73
2023-08-07T07:54:36.389Z,21.85
2023-08-07T07:57:38.809Z,21.84
2023-08-07T08:00:40.897Z,22.98
2023-08-07T08:03:44.767Z,23.05
2023-08-07T08:06:49.363Z,21.89
2023-08-07T08:09:52.041Z,21.65
2023-08-07T08:12:57.336Z,20.96
2023-08-07T08:15:59.727Z,21.72
2023-08-07T08:19:02.184Z,22.05
2023-08-07T08:22:04.689Z,20.75
2023-08-07T08:25:07.930Z,20.61
2023-08-07T08:28:10.086Z,21.20
2023-08-07T08:31:12.316Z,20.74
2023-08-07T08:34:14.506Z,20.57
2023-08-07T08:37:16.771Z,20.28
2023-08-07T08:40:20.629Z,19.36
2023-08-07T08:43:22.786Z,20.81
2023-08-07T08:46:25.786Z,20.49
2023-08-07T08:49:33.983Z,21.48
2023-08-07T08:52:38.985Z,20.56
2023-08-07T08:55:44.068Z,20.46
2023-08-07T08:58:46.668Z,20.59
2023-08-07T09:01:50.601Z,19.77
2023-08-07T09:04:52.697Z,19.68
2023-08-07T09:07:55.133Z,20.62
2023-08-07T09:10:57.489Z,20.72
2023-08-07T09:14:01.726Z,20.96
2023-08-07T09:17:04.794Z,20.69
2023-08-07T09:20:14.535Z,20.79
2023-08-07T09:23:20.578Z,21.05
2023-08-07T09:26:27.130Z,21.05
2023-08-07T09:29:29.738Z,21.91
2023-08-07T09:32:31.864Z,23.05
2023-08-07T09:35:35.036Z,22.69
2023-08-07T09:38:37.334Z,22.78
2023-08-07T09:41:41.992Z,22.80
2023-08-07T09:44:46.323Z,23.69
2023-08-07T09:47:49.271Z,24.08
2023-08-07T09:50:51.848Z,24.14
2023-08-07T09:53:54.128Z,23.01
2023-08-07T09:56:59.097Z,21.91
2023-08-07T10:00:01.906Z,21.86
2023-08-07T10:03:04.682Z,21.95
2023-08-07T10:06:07.489Z,21.63
2023-08-07T10:09:10.264Z,21.30
2023-08-07T10:12:12.881Z,22.94
2023-08-07T10:15:15.813Z,23.47
2023-08-07T10:18:17.996Z,23.19
2023-08-07T10:21:20.761Z,22.78
2023-08-07T10:24:24.277Z,21.92
2023-08-07T10:27:27.462Z,22.55
2023-08-07T10:30:30.980Z,22.13
2023-08-07T10:33:33.524Z,20.75
2023-08-07T10:36:37.102Z,22.16
2023-08-07T10:40:03.565Z,22.51
2023-08-07T10:43:08.753Z,21.55
2023-08-07T10:46:13.720Z,21.45
2023-08-07T10:49:33.477Z,21.28
2023-08-07T10:52:42.665Z,20.36
2023-08-07T10:55:46.698Z,20.65
2023-08-07T10:58:54.303Z,20.88
2023-08-07T11:01:56.839Z,21.27
2023-08-07T11:04:59.158Z,20.72
2023-08-07T11:08:04.024Z,20.64
2023-08-07T11:11:07.293Z,21.25
2023-08-07T11:14:20.144Z,20.36
2023-08-07T11:17:22.823Z,19.75
2023-08-07T11:20:26.729Z,19.77
2023-08-07T11:23:29.505Z,19.83
2023-08-07T11:26:31.481Z,21.77
2023-08-07T11:29:34.582Z,21.94
2023-08-07T11:32:37.774Z,22.80
2023-08-07T11:35:43.569Z,21.42
2023-08-07T11:38:46.038Z,22.68
2023-08-07T11:41:48.498Z,23.48
2023-08-07T11:44:50.750Z,23.92
2023-08-07T11:47:57.022Z,22.15
2023-08-07T11:51:00.638Z,22.79
2023-08-07T11:54:03.970Z,23.47
2023-08-07T11:57:18.768Z,22.57
2023-08-07T12:00:21.557Z,23.10
2023-08-07T12:03:32.209Z,21.15
2023-08-07T12:06:35.547Z,21.22
2023-08-07T12:09:38.328Z,20.69
2023-08-07T12:12:40.726Z,21.84
2023-08-07T12:15:43.708Z,21.73
2023-08-07T12:18:52.935Z,21.94
2023-08-07T12:21:55.090Z,23.84
2023-08-07T12:24:57.204Z,24.06
2023-08-07T12:27:59.550Z,24.16
2023-08-07T12:31:01.813Z,24.37
2023-08-07T12:37:15.120Z,22.14
2023-08-07T12:43:33.011Z,22.03
2023-08-07T12:46:39.868Z,20.71
2023-08-07T12:49:42.888Z,20.45
2023-08-07T12:52:45.490Z,20.33
2023-08-07T12:55:50.837Z,20.26
2023-08-07T12:58:53.337Z,19.83
2023-08-07T13:01:55.766Z,20.06
2023-08-07T13:04:58.569Z,19.45
2023-08-07T13:08:02.436Z,19.26
2023-08-07T13:11:06.157Z,18.90
2023-08-07T13:14:08.378Z,19.15
2023-08-07T13:17:10.555Z,18.72
2023-08-07T13:20:15.001Z,18.87
2023-08-07T13:23:17.662Z,19.38
2023-08-07T13:26:19.860Z,19.37
2023-08-07T13:29:22.987Z,19.23
2023-08-07T13:32:26.638Z,19.40
2023-08-07T13:35:28.830Z,18.85
2023-08-07T13:38:31.056Z,19.12
2023-08-07T13:41:33.768Z,18.47
2023-08-07T13:44:36.263Z,18.60
2023-08-07T13:47:38.909Z,19.01
2023-08-07T13:50:42.160Z,18.99
2023-08-07T13:53:44.908Z,18.65
2023-08-07T13:56:47.273Z,18.17
2023-08-07T13:59:50.658Z,18.87
2023-08-07T14:02:54.081Z,18.80
2023-08-07T14:05:56.394Z,18.61
2023-08-07T14:09:00.959Z,19.20
2023-08-07T14:12:03.324Z,18.74
2023-08-07T14:15:06.491Z,18.66
2023-08-07T14:18:09.046Z,18.87
2023-08-07T14:21:11.351Z,18.58
2023-08-07T14:24:15.981Z,18.98
2023-08-07T14:27:18.504Z,18.53
2023-08-07T14:30:23.310Z,18.14
2023-08-07T14:33:25.498Z,18.09
2023-08-07T14:36:27.796Z,18.18
2023-08-07T14:39:30.039Z,18.23
2023-08-07T14:42:32.244Z,17.87
2023-08-07T14:45:34.518Z,17.86
2023-08-07T14:48:37.065Z,18.39
2023-08-07T14:51:39.476Z,18.06
2023-08-07T14:54:41.710Z,18.07
2023-08-07T14:57:43.964Z,18.09
2023-08-07T15:00:46.706Z,17.30
2023-08-07T15:03:48.980Z,17.42
2023-08-07T15:06:51.716Z,17.36
2023-08-07T15:09:54.027Z,17.62
2023-08-07T15:12:57.221Z,17.93
2023-08-07T15:15:59.686Z,17.16
2023-08-07T15:19:04.028Z,17.75
2023-08-07T15:22:06.483Z,17.51
2023-08-07T15:25:09.589Z,17.23
2023-08-07T15:28:11.636Z,17.53
2023-08-07T15:31:13.700Z,17.29
2023-08-07T15:34:15.800Z,17.08
2023-08-07T15:37:18.072Z,17.21
2023-08-07T15:40:20.608Z,17.58
2023-08-07T15:43:23.200Z,17.87
2023-08-07T15:46:25.736Z,17.72
2023-08-07T15:49:27.990Z,18.24
2023-08-07T15:52:30.249Z,17.88
2023-08-07T15:55:36.378Z,17.79
2023-08-07T15:58:38.578Z,18.43
2023-08-07T16:01:40.942Z,17.59
2023-08-07T16:04:46.543Z,17.60
2023-08-07T16:07:50.884Z,17.27
2023-08-07T16:10:53.917Z,17.61
2023-08-07T16:13:56.093Z,17.15
2023-08-07T16:16:59.303Z,17.64
2023-08-07T16:20:01.586Z,17.16
2023-08-07T16:23:04.036Z,17.94
2023-08-07T16:26:07.018Z,17.57
2023-08-07T16:29:09.181Z,18.06
2023-08-07T16:32:11.487Z,18.28
2023-08-07T16:35:14.998Z,18.32
2023-08-07T16:38:17.101Z,17.78
2023-08-07T16:41:19.216Z,17.98
2023-08-07T16:44:21.571Z,18.05
2023-08-07T16:47:23.978Z,18.17
2023-08-07T16:50:28.165Z,18.45
2023-08-07T16:53:30.536Z,18.68
2023-08-07T16:56:32.698Z,18.48
2023-08-07T16:59:34.902Z,18.75
2023-08-07T17:02:37.649Z,18.64
2023-08-07T17:05:40.033Z,18.20
2023-08-07T17:08:42.327Z,17.52
2023-08-07T17:11:44.518Z,18.07
2023-08-07T17:14:46.833Z,17.75
2023-08-07T17:17:49.591Z,18.58
2023-08-07T17:20:51.797Z,18.21
2023-08-07T17:23:53.922Z,17.98
2023-08-07T17:26:56.714Z,19.02
2023-08-07T17:29:59.197Z,18.76
2023-08-07T17:33:01.461Z,19.07
2023-08-07T17:36:03.734Z,18.36
2023-08-07T17:39:06.028Z,18.37
2023-08-07T17:42:08.627Z,18.71
2023-08-07T17:45:13.304Z,18.06
2023-08-07T17:48:15.814Z,18.08
2023-08-07T17:51:18.017Z,17.96
2023-08-07T17:54:20.271Z,17.57
2023-08-07T17:57:22.379Z,17.55
2023-08-07T18:00:24.882Z,17.62
2023-08-07T18:03:27.022Z,17.67
2023-08-07T18:06:29.896Z,17.83
2023-08-07T18:09:31.985Z,17.43
2023-08-07T18:12:34.070Z,17.74
2023-08-07T18:15:36.220Z,17.75
2023-08-07T18:18:38.409Z,18.28
2023-08-07T18:21:40.526Z,17.94
2023-08-07T18:24:43.735Z,17.48
2023-08-07T18:27:45.909Z,17.91
2023-08-07T18:30:48.077Z,17.64
2023-08-07T18:33:50.403Z,17.61
2023-08-07T18:36:52.849Z,17.49
2023-08-07T18:39:55.041Z,17.48
2023-08-07T18:42:57.222Z,17.99
2023-08-07T18:45:59.332Z,17.43
2023-08-07T18:49:01.733Z,17.73
2023-08-07T18:52:05.512Z,17.92
2023-08-07T18:55:08.674Z,17.42
2023-08-07T18:58:10.877Z,17.44
2023-08-07T19:01:13.132Z,18.17
2023-08-07T19:04:16.903Z,17.76
2023-08-07T19:07:19.126Z,17.79
2023-08-07T19:10:21.451Z,18.17
2023-08-07T19:13:23.556Z,17.96
2023-08-07T19:16:25.824Z,17.76
2023-08-07T19:19:28.129Z,17.49
2023-08-07T19:22:31.648Z,18.24
2023-08-07T19:25:33.925Z,18.93
2023-08-07T19:28:36.157Z,17.53
2023-08-07T19:31:38.377Z,17.51
2023-08-07T19:34:40.536Z,17.62
2023-08-07T19:37:43.003Z,18.17
2023-08-07T19:40:45.270Z,17.97
2023-08-07T19:43:49.141Z,17.64
2023-08-07T19:46:51.317Z,18.25
2023-08-07T19:49:53.446Z,17.95
2023-08-07T19:52:55.968Z,17.97
2023-08-07T19:55:58.138Z,17.64
2023-08-07T19:59:01.551Z,17.70
2023-08-07T20:02:05.713Z,17.69
2023-08-07T20:05:08.271Z,17.87
2023-08-07T20:08:11.194Z,17.43
2023-08-07T20:11:13.457Z,17.46
2023-08-07T20:14:15.619Z,17.50
2023-08-07T20:17:17.965Z,17.50
2023-08-07T20:20:21.371Z,17.59
2023-08-07T20:23:24.114Z,17.27
2023-08-07T20:26:26.297Z,17.69
2023-08-07T20:29:28.768Z,17.51
2023-08-07T20:32:31.222Z,17.43
2023-08-07T20:35:33.401Z,17.40
2023-08-07T20:38:35.801Z,17.01
2023-08-07T20:41:38.143Z,17.74
2023-08-07T20:44:40.317Z,17.08
2023-08-07T20:47:42.949Z,17.27
2023-08-07T20:50:45.143Z,17.45
2023-08-07T20:53:47.738Z,17.15
2023-08-07T20:56:50.046Z,16.86
2023-08-07T20:59:52.217Z,17.21
2023-08-07T21:02:54.352Z,17.56
2023-08-07T21:05:56.559Z,17.58
2023-08-07T21:08:58.657Z,17.52
2023-08-07T21:12:01.151Z,17.52
2023-08-07T21:15:05.505Z,17.26
2023-08-07T21:18:07.675Z,17.14
2023-08-07T21:21:09.934Z,16.95
2023-08-07T21:24:14.551Z,16.36
2023-08-07T21:27:18.179Z,17.19
2023-08-07T21:30:20.321Z,16.78
2023-08-07T21:33:24.550Z,16.70
2023-08-07T21:36:26.809Z,17.10
2023-08-07T21:39:29.068Z,17.10
2023-08-07T21:42:31.678Z,16.52
2023-08-07T21:45:34.061Z,16.99
2023-08-07T21:48:36.326Z,16.82
2023-08-07T21:51:38.433Z,17.25
2023-08-07T21:54:40.637Z,17.20
2023-08-07T21:57:42.798Z,17.18
2023-08-07T22:00:47.722Z,16.92
2023-08-07T22:03:49.883Z,17.34
2023-08-07T22:06:52.080Z,16.92
2023-08-07T22:09:54.209Z,17.15
2023-08-07T22:12:56.430Z,17.40
2023-08-07T22:15:58.698Z,16.90
2023-08-07T22:19:00.847Z,16.29
2023-08-07T22:22:03.131Z,17.05
2023-08-07T22:25:06.297Z,16.88
2023-08-07T22:28:09.160Z,16.97
2023-08-07T22:31:11.383Z,17.14
2023-08-07T22:34:13.484Z,16.95
2023-08-07T22:37:15.593Z,16.42
2023-08-07T22:40:17.764Z,17.29
2023-08-07T22:43:19.911Z,16.57
2023-08-07T22:46:22.151Z,16.65
2023-08-07T22:49:24.250Z,16.47
2023-08-07T22:52:26.390Z,16.43
2023-08-07T22:55:28.599Z,16.73
2023-08-07T22:58:30.720Z,16.77
2023-08-07T23:01:32.942Z,17.37
2023-08-07T23:04:35.097Z,16.64
2023-08-07T23:07:37.757Z,17.15
2023-08-07T23:10:39.944Z,17.26
2023-08-07T23:13:42.079Z,16.87
2023-08-07T23:16:45.631Z,16.69
2023-08-07T23:19:47.991Z,16.41
2023-08-07T23:22:50.137Z,16.46
2023-08-07T23:25:52.352Z,16.62
2023-08-07T23:28:54.655Z,16.08
2023-08-07T23:31:57.077Z,16.55
2023-08-07T23:34:59.634Z,16.30
2023-08-07T23:38:01.782Z,16.73
2023-08-07T23:41:06.069Z,16.49
2023-08-07T23:44:08.147Z,16.19
2023-08-07T23:47:10.602Z,15.55
2023-08-07T23:50:12.809Z,15.60
2023-08-07T23:53:14.913Z,15.83
2023-08-07T23:56:17.262Z,16.07
2023-08-07T23:59:19.656Z,16.01
